sensor_id;sensor_type;location;lat;lon;timestamp;P1;durP1;ratioP1;P2;durP2;ratioP2
29236;SDS011;16266;50.866;4.398;2023-07-31T00:00:48;1999.90;;;999.90;;
29236;SDS011;16266;50.866;4.398;2023-07-31T00:03:14;1999.90;;;999.90;;
29236;SDS011;16266;50.866;4.398;2023-07-31T00:05:39;1999.90;;;999.90;;
29236;SDS011;16266;50.866;4.398;2023-07-31T00:08:05;1999.90;;;999.90;;
29236;SDS011;16266;50.866;4.398;2023-07-31T00:10:30;1999.90;;;999.90;;
29236;SDS011;16266;50.866;4.398;2023-07-31T00:12:56;1999.90;;;999.90;;
29236;SDS011;16266;50.866;4.398;2023-07-31T00:15:22;1999.90;;;999.90;;
29236;SDS011;16266;50.866;4.398;2023-07-31T00:17:47;1999.90;;;999.90;;
29236;SDS011;16266;50.866;4.398;2023-07-31T00:20:13;1999.90;;;999.90;;
29236;SDS011;16266;50.866;4.398;2023-07-31T00:22:39;1999.90;;;999.90;;
29236;SDS011;16266;50.866;4.398;2023-07-31T00:25:10;1999.90;;;999.90;;
29236;SDS011;16266;50.866;4.398;2023-07-31T00:27:36;1999.90;;;999.90;;
29236;SDS011;16266;50.866;4.398;2023-07-31T00:30:02;1999.90;;;999.90;;
29236;SDS011;16266;50.866;4.398;2023-07-31T00:32:28;1999.90;;;999.90;;
29236;SDS011;16266;50.866;4.398;2023-07-31T00:34:54;1999.90;;;999.90;;
29236;SDS011;16266;50.866;4.398;2023-07-31T00:37:20;1999.90;;;999.90;;
29236;SDS011;16266;50.866;4.398;2023-07-31T00:39:45;1999.90;;;999.90;;
29236;SDS011;16266;50.866;4.398;2023-07-31T00:42:11;1999.90;;;999.90;;
29236;SDS011;16266;50.866;4.398;2023-07-31T00:44:36;1999.90;;;999.90;;
29236;SDS011;16266;50.866;4.398;2023-07-31T00:47:02;1999.90;;;999.90;;
29236;SDS011;16266;50.866;4.398;2023-07-31T00:49:28;1999.90;;;999.90;;
29236;SDS011;16266;50.866;4.398;2023-07-31T00:51:54;1999.90;;;999.90;;
29236;SDS011;16266;50.866;4.398;2023-07-31T00:54:22;1999.90;;;999.90;;
29236;SDS011;16266;50.866;4.398;2023-07-31T00:56:48;1999.90;;;999.90;;
29236;SDS011;16266;50.866;4.398;2023-07-31T00:59:16;1999.90;;;999.90;;
29236;SDS011;16266;50.866;4.398;2023-07-31T01:01:43;1999.90;;;999.90;;
29236;SDS011;16266;50.866;4.398;2023-07-31T01:04:09;1999.90;;;999.90;;
29236;SDS011;16266;50.866;4.398;2023-07-31T01:06:38;1999.90;;;999.90;;
29236;SDS011;16266;50.866;4.398;2023-07-31T01:09:12;1999.90;;;999.90;;
29236;SDS011;16266;50.866;4.398;2023-07-31T01:11:43;1999.90;;;999.90;;
29236;SDS011;16266;50.866;4.398;2023-07-31T01:14:17;1999.90;;;999.90;;
29236;SDS011;16266;50.866;4.398;2023-07-31T01:16:43;1999.90;;;999.90;;
29236;SDS011;16266;50.866;4.398;2023-07-31T01:19:08;1660.55;;;902.47;;
29236;SDS011;16266;50.866;4.398;2023-07-31T01:24:07;1999.90;;;999.90;;
29236;SDS011;16266;50.866;4.398;2023-07-31T01:26:44;1999.90;;;999.90;;
29236;SDS011;16266;50.866;4.398;2023-07-31T01:31:48;1999.90;;;999.90;;
29236;SDS011;16266;50.866;4.398;2023-07-31T01:34:18;1652.57;;;895.35;;
29236;SDS011;16266;50.866;4.398;2023-07-31T01:36:45;597.13;;;568.47;;
29236;SDS011;16266;50.866;4.398;2023-07-31T01:39:11;490.55;;;467.63;;
29236;SDS011;16266;50.866;4.398;2023-07-31T01:41:36;366.63;;;350.40;;
29236;SDS011;16266;50.866;4.398;2023-07-31T01:44:02;373.70;;;356.52;;
29236;SDS011;16266;50.866;4.398;2023-07-31T01:46:28;1999.90;;;999.90;;
29236;SDS011;16266;50.866;4.398;2023-07-31T01:48:53;1999.90;;;999.90;;
29236;SDS011;16266;50.866;4.398;2023-07-31T01:51:19;1999.90;;;999.90;;
29236;SDS011;16266;50.866;4.398;2023-07-31T01:53:45;1999.90;;;999.90;;
29236;SDS011;16266;50.866;4.398;2023-07-31T01:56:10;1999.90;;;999.90;;
29236;SDS011;16266;50.866;4.398;2023-07-31T01:58:36;1999.90;;;999.90;;
29236;SDS011;16266;50.866;4.398;2023-07-31T02:01:01;1999.90;;;999.90;;
29236;SDS011;16266;50.866;4.398;2023-07-31T02:03:27;1999.90;;;999.90;;
29236;SDS011;16266;50.866;4.398;2023-07-31T02:05:53;1999.90;;;999.90;;
29236;SDS011;16266;50.866;4.398;2023-07-31T02:08:19;1999.90;;;999.90;;
29236;SDS011;16266;50.866;4.398;2023-07-31T02:10:45;1999.90;;;999.90;;
29236;SDS011;16266;50.866;4.398;2023-07-31T02:13:11;1999.90;;;999.90;;
29236;SDS011;16266;50.866;4.398;2023-07-31T02:15:36;1999.90;;;999.90;;
29236;SDS011;16266;50.866;4.398;2023-07-31T02:18:02;1999.90;;;999.90;;
29236;SDS011;16266;50.866;4.398;2023-07-31T02:20:28;1999.90;;;999.90;;
29236;SDS011;16266;50.866;4.398;2023-07-31T02:22:53;1999.90;;;999.90;;
29236;SDS011;16266;50.866;4.398;2023-07-31T02:25:19;1999.90;;;999.90;;
29236;SDS011;16266;50.866;4.398;2023-07-31T02:27:45;1999.90;;;999.90;;
29236;SDS011;16266;50.866;4.398;2023-07-31T02:30:10;1999.90;;;999.90;;
29236;SDS011;16266;50.866;4.398;2023-07-31T02:32:36;1999.90;;;999.90;;
29236;SDS011;16266;50.866;4.398;2023-07-31T02:35:02;1999.90;;;999.90;;
29236;SDS011;16266;50.866;4.398;2023-07-31T02:37:28;1999.90;;;999.90;;
29236;SDS011;16266;50.866;4.398;2023-07-31T02:39:54;1999.90;;;999.90;;
29236;SDS011;16266;50.866;4.398;2023-07-31T02:42:20;1999.90;;;999.90;;
29236;SDS011;16266;50.866;4.398;2023-07-31T02:44:45;1999.90;;;999.90;;
29236;SDS011;16266;50.866;4.398;2023-07-31T02:47:11;1999.90;;;999.90;;
29236;SDS011;16266;50.866;4.398;2023-07-31T02:49:36;1999.90;;;999.90;;
29236;SDS011;16266;50.866;4.398;2023-07-31T02:52:02;1999.90;;;999.90;;
29236;SDS011;16266;50.866;4.398;2023-07-31T02:54:28;1999.90;;;999.90;;
29236;SDS011;16266;50.866;4.398;2023-07-31T02:56:54;1999.90;;;999.90;;
29236;SDS011;16266;50.866;4.398;2023-07-31T02:59:19;1999.90;;;999.90;;
29236;SDS011;16266;50.866;4.398;2023-07-31T03:01:45;1999.90;;;999.90;;
29236;SDS011;16266;50.866;4.398;2023-07-31T03:04:11;1999.90;;;999.90;;
29236;SDS011;16266;50.866;4.398;2023-07-31T03:06:36;1999.90;;;999.90;;
29236;SDS011;16266;50.866;4.398;2023-07-31T03:09:02;1999.90;;;999.90;;
29236;SDS011;16266;50.866;4.398;2023-07-31T03:11:28;1999.90;;;999.90;;
29236;SDS011;16266;50.866;4.398;2023-07-31T03:13:53;1999.90;;;999.90;;
29236;SDS011;16266;50.866;4.398;2023-07-31T03:16:21;1999.90;;;999.90;;
29236;SDS011;16266;50.866;4.398;2023-07-31T03:18:47;1999.90;;;999.90;;
29236;SDS011;16266;50.866;4.398;2023-07-31T03:21:14;1999.90;;;999.90;;
29236;SDS011;16266;50.866;4.398;2023-07-31T03:23:39;1999.90;;;999.90;;
29236;SDS011;16266;50.866;4.398;2023-07-31T03:26:06;1999.90;;;999.90;;
29236;SDS011;16266;50.866;4.398;2023-07-31T03:28:32;1999.90;;;999.90;;
29236;SDS011;16266;50.866;4.398;2023-07-31T03:30:58;1999.90;;;999.90;;
29236;SDS011;16266;50.866;4.398;2023-07-31T03:33:24;1999.90;;;999.90;;
29236;SDS011;16266;50.866;4.398;2023-07-31T03:35:51;1999.90;;;999.90;;
29236;SDS011;16266;50.866;4.398;2023-07-31T03:38:17;1999.90;;;999.90;;
29236;SDS011;16266;50.866;4.398;2023-07-31T03:40:43;1999.90;;;999.90;;
29236;SDS011;16266;50.866;4.398;2023-07-31T03:43:09;1999.90;;;999.90;;
29236;SDS011;16266;50.866;4.398;2023-07-31T03:45:34;1999.90;;;999.90;;
29236;SDS011;16266;50.866;4.398;2023-07-31T03:48:00;1999.90;;;999.90;;
29236;SDS011;16266;50.866;4.398;2023-07-31T03:50:26;1108.18;;;820.20;;
29236;SDS011;16266;50.866;4.398;2023-07-31T03:52:52;555.85;;;526.97;;
29236;SDS011;16266;50.866;4.398;2023-07-31T03:55:18;973.42;;;697.45;;
29236;SDS011;16266;50.866;4.398;2023-07-31T03:57:43;911.05;;;639.00;;
29236;SDS011;16266;50.866;4.398;2023-07-31T04:00:09;474.67;;;450.80;;
29236;SDS011;16266;50.866;4.398;2023-07-31T04:02:35;442.35;;;420.92;;
29236;SDS011;16266;50.866;4.398;2023-07-31T04:05:01;839.22;;;572.65;;
29236;SDS011;16266;50.866;4.398;2023-07-31T04:07:26;450.63;;;429.25;;
29236;SDS011;16266;50.866;4.398;2023-07-31T04:09:52;615.50;;;584.55;;
29236;SDS011;16266;50.866;4.398;2023-07-31T04:12:18;1999.90;;;999.90;;
29236;SDS011;16266;50.866;4.398;2023-07-31T04:14:43;1999.90;;;999.90;;
29236;SDS011;16266;50.866;4.398;2023-07-31T04:17:09;1999.90;;;999.90;;
29236;SDS011;16266;50.866;4.398;2023-07-31T04:19:34;1999.90;;;999.90;;
29236;SDS011;16266;50.866;4.398;2023-07-31T04:22:00;1999.90;;;999.90;;
29236;SDS011;16266;50.866;4.398;2023-07-31T04:24:25;1999.90;;;999.90;;
29236;SDS011;16266;50.866;4.398;2023-07-31T04:26:52;1999.90;;;999.90;;
29236;SDS011;16266;50.866;4.398;2023-07-31T04:29:18;1999.90;;;999.90;;
29236;SDS011;16266;50.866;4.398;2023-07-31T04:31:44;1999.90;;;999.90;;
29236;SDS011;16266;50.866;4.398;2023-07-31T04:34:09;1999.90;;;999.90;;
29236;SDS011;16266;50.866;4.398;2023-07-31T04:36:36;1999.90;;;999.90;;
29236;SDS011;16266;50.866;4.398;2023-07-31T04:39:02;1999.90;;;999.90;;
29236;SDS011;16266;50.866;4.398;2023-07-31T04:41:28;1999.90;;;999.90;;
29236;SDS011;16266;50.866;4.398;2023-07-31T04:43:53;1999.90;;;999.90;;
29236;SDS011;16266;50.866;4.398;2023-07-31T04:46:19;1999.90;;;999.90;;
29236;SDS011;16266;50.866;4.398;2023-07-31T04:48:45;1999.90;;;999.90;;
29236;SDS011;16266;50.866;4.398;2023-07-31T04:51:11;1999.90;;;999.90;;
29236;SDS011;16266;50.866;4.398;2023-07-31T04:53:36;1999.90;;;999.90;;
29236;SDS011;16266;50.866;4.398;2023-07-31T04:56:03;1999.90;;;999.90;;
29236;SDS011;16266;50.866;4.398;2023-07-31T04:58:28;1999.90;;;999.90;;
29236;SDS011;16266;50.866;4.398;2023-07-31T05:00:54;1999.90;;;999.90;;
29236;SDS011;16266;50.866;4.398;2023-07-31T05:03:20;1999.90;;;999.90;;
29236;SDS011;16266;50.866;4.398;2023-07-31T05:05:45;1999.90;;;999.90;;
29236;SDS011;16266;50.866;4.398;2023-07-31T05:08:11;1999.90;;;999.90;;
29236;SDS011;16266;50.866;4.398;2023-07-31T05:10:37;1999.90;;;999.90;;
29236;SDS011;16266;50.866;4.398;2023-07-31T05:13:02;1999.90;;;999.90;;
29236;SDS011;16266;50.866;4.398;2023-07-31T05:15:28;1999.90;;;999.90;;
29236;SDS011;16266;50.866;4.398;2023-07-31T05:17:54;1999.90;;;999.90;;
29236;SDS011;16266;50.866;4.398;2023-07-31T05:20:20;1999.90;;;999.90;;
29236;SDS011;16266;50.866;4.398;2023-07-31T05:22:46;1999.90;;;999.90;;
29236;SDS011;16266;50.866;4.398;2023-07-31T05:25:12;1999.90;;;999.90;;
29236;SDS011;16266;50.866;4.398;2023-07-31T05:27:37;1999.90;;;999.90;;
29236;SDS011;16266;50.866;4.398;2023-07-31T05:30:03;1999.90;;;999.90;;
29236;SDS011;16266;50.866;4.398;2023-07-31T05:32:30;1999.90;;;999.90;;
29236;SDS011;16266;50.866;4.398;2023-07-31T05:34:55;1999.90;;;999.90;;
29236;SDS011;16266;50.866;4.398;2023-07-31T05:37:21;1999.90;;;999.90;;
29236;SDS011;16266;50.866;4.398;2023-07-31T05:39:47;1999.90;;;999.90;;
29236;SDS011;16266;50.866;4.398;2023-07-31T05:42:13;1999.90;;;999.90;;
29236;SDS011;16266;50.866;4.398;2023-07-31T05:44:38;1999.90;;;999.90;;
29236;SDS011;16266;50.866;4.398;2023-07-31T05:47:04;1999.90;;;999.90;;
29236;SDS011;16266;50.866;4.398;2023-07-31T05:49:30;1999.90;;;999.90;;
29236;SDS011;16266;50.866;4.398;2023-07-31T05:51:56;1999.90;;;999.90;;
29236;SDS011;16266;50.866;4.398;2023-07-31T05:54:21;1999.90;;;999.90;;
29236;SDS011;16266;50.866;4.398;2023-07-31T05:56:47;1999.90;;;999.90;;
29236;SDS011;16266;50.866;4.398;2023-07-31T05:59:13;1999.90;;;999.90;;
29236;SDS011;16266;50.866;4.398;2023-07-31T06:01:39;1999.90;;;999.90;;
29236;SDS011;16266;50.866;4.398;2023-07-31T06:04:05;1999.90;;;999.90;;
29236;SDS011;16266;50.866;4.398;2023-07-31T06:06:30;1999.90;;;999.90;;
29236;SDS011;16266;50.866;4.398;2023-07-31T06:08:56;1999.90;;;999.90;;
29236;SDS011;16266;50.866;4.398;2023-07-31T06:11:22;1999.90;;;999.90;;
29236;SDS011;16266;50.866;4.398;2023-07-31T06:13:48;1999.90;;;999.90;;
29236;SDS011;16266;50.866;4.398;2023-07-31T06:16:15;1999.90;;;999.90;;
29236;SDS011;16266;50.866;4.398;2023-07-31T06:18:42;1999.90;;;999.90;;
29236;SDS011;16266;50.866;4.398;2023-07-31T06:21:08;1999.90;;;999.90;;
29236;SDS011;16266;50.866;4.398;2023-07-31T06:23:36;1999.90;;;999.90;;
29236;SDS011;16266;50.866;4.398;2023-07-31T06:26:02;1999.90;;;999.90;;
29236;SDS011;16266;50.866;4.398;2023-07-31T06:28:31;1999.90;;;999.90;;
29236;SDS011;16266;50.866;4.398;2023-07-31T06:30:59;1999.90;;;999.90;;
29236;SDS011;16266;50.866;4.398;2023-07-31T06:33:26;1999.90;;;999.90;;
29236;SDS011;16266;50.866;4.398;2023-07-31T06:35:52;1999.90;;;999.90;;
29236;SDS011;16266;50.866;4.398;2023-07-31T06:38:26;1999.90;;;999.90;;
29236;SDS011;16266;50.866;4.398;2023-07-31T06:40:52;1999.90;;;999.90;;
29236;SDS011;16266;50.866;4.398;2023-07-31T06:43:19;1999.90;;;999.90;;
29236;SDS011;16266;50.866;4.398;2023-07-31T06:45:45;1999.90;;;999.90;;
29236;SDS011;16266;50.866;4.398;2023-07-31T06:48:12;1999.90;;;999.90;;
29236;SDS011;16266;50.866;4.398;2023-07-31T06:50:38;1999.90;;;999.90;;
29236;SDS011;16266;50.866;4.398;2023-07-31T06:53:03;1999.90;;;999.90;;
29236;SDS011;16266;50.866;4.398;2023-07-31T06:55:29;1999.90;;;999.90;;
29236;SDS011;16266;50.866;4.398;2023-07-31T06:57:55;1999.90;;;999.90;;
29236;SDS011;16266;50.866;4.398;2023-07-31T07:00:22;1999.90;;;999.90;;
29236;SDS011;16266;50.866;4.398;2023-07-31T07:02:48;1999.90;;;999.90;;
29236;SDS011;16266;50.866;4.398;2023-07-31T07:05:14;1999.90;;;999.90;;
29236;SDS011;16266;50.866;4.398;2023-07-31T07:07:43;1101.60;;;809.83;;
29236;SDS011;16266;50.866;4.398;2023-07-31T07:10:09;1999.90;;;999.90;;
29236;SDS011;16266;50.866;4.398;2023-07-31T07:12:35;1034.78;;;750.47;;
29236;SDS011;16266;50.866;4.398;2023-07-31T07:15:01;752.97;;;707.50;;
29236;SDS011;16266;50.866;4.398;2023-07-31T07:17:28;523.00;;;497.90;;
29236;SDS011;16266;50.866;4.398;2023-07-31T07:19:58;430.00;;;411.10;;
29236;SDS011;16266;50.866;4.398;2023-07-31T07:22:25;543.65;;;515.45;;
29236;SDS011;16266;50.866;4.398;2023-07-31T07:24:51;547.05;;;520.05;;
29236;SDS011;16266;50.866;4.398;2023-07-31T07:27:17;704.67;;;666.95;;
29236;SDS011;16266;50.866;4.398;2023-07-31T07:29:42;806.03;;;757.88;;
29236;SDS011;16266;50.866;4.398;2023-07-31T07:32:08;856.53;;;803.10;;
29236;SDS011;16266;50.866;4.398;2023-07-31T07:34:33;660.13;;;625.65;;
29236;SDS011;16266;50.866;4.398;2023-07-31T07:37:01;544.20;;;518.22;;
29236;SDS011;16266;50.866;4.398;2023-07-31T07:39:27;412.05;;;393.48;;
29236;SDS011;16266;50.866;4.398;2023-07-31T07:41:52;340.23;;;326.05;;
29236;SDS011;16266;50.866;4.398;2023-07-31T07:44:19;561.10;;;535.25;;
29236;SDS011;16266;50.866;4.398;2023-07-31T07:46:44;332.00;;;318.20;;
29236;SDS011;16266;50.866;4.398;2023-07-31T07:49:10;243.20;;;233.57;;
29236;SDS011;16266;50.866;4.398;2023-07-31T07:51:36;250.77;;;240.88;;
29236;SDS011;16266;50.866;4.398;2023-07-31T07:54:02;237.95;;;228.30;;
29236;SDS011;16266;50.866;4.398;2023-07-31T07:56:27;290.90;;;279.02;;
29236;SDS011;16266;50.866;4.398;2023-07-31T07:58:53;230.93;;;221.75;;
29236;SDS011;16266;50.866;4.398;2023-07-31T08:01:20;155.20;;;149.15;;
29236;SDS011;16266;50.866;4.398;2023-07-31T08:03:46;90.25;;;86.88;;
29236;SDS011;16266;50.866;4.398;2023-07-31T08:06:12;137.55;;;132.15;;
29236;SDS011;16266;50.866;4.398;2023-07-31T08:08:39;191.32;;;182.82;;
29236;SDS011;16266;50.866;4.398;2023-07-31T08:11:05;173.25;;;166.55;;
29236;SDS011;16266;50.866;4.398;2023-07-31T08:13:30;184.27;;;176.68;;
29236;SDS011;16266;50.866;4.398;2023-07-31T08:15:56;264.75;;;254.32;;
29236;SDS011;16266;50.866;4.398;2023-07-31T08:18:22;269.80;;;259.15;;
29236;SDS011;16266;50.866;4.398;2023-07-31T08:20:48;273.67;;;262.75;;
29236;SDS011;16266;50.866;4.398;2023-07-31T08:23:14;389.30;;;372.92;;
29236;SDS011;16266;50.866;4.398;2023-07-31T08:25:40;330.38;;;317.05;;
29236;SDS011;16266;50.866;4.398;2023-07-31T08:28:05;338.75;;;324.40;;
29236;SDS011;16266;50.866;4.398;2023-07-31T08:30:31;327.42;;;314.30;;
29236;SDS011;16266;50.866;4.398;2023-07-31T08:32:58;311.48;;;298.70;;
29236;SDS011;16266;50.866;4.398;2023-07-31T08:35:24;333.35;;;319.65;;
29236;SDS011;16266;50.866;4.398;2023-07-31T08:37:51;470.95;;;450.58;;
29236;SDS011;16266;50.866;4.398;2023-07-31T08:40:16;349.77;;;335.50;;
29236;SDS011;16266;50.866;4.398;2023-07-31T08:42:45;323.58;;;310.55;;
29236;SDS011;16266;50.866;4.398;2023-07-31T08:47:39;273.23;;;262.40;;
29236;SDS011;16266;50.866;4.398;2023-07-31T08:50:05;235.95;;;226.63;;
29236;SDS011;16266;50.866;4.398;2023-07-31T08:52:32;306.98;;;294.75;;
29236;SDS011;16266;50.866;4.398;2023-07-31T08:54:57;280.90;;;269.77;;
29236;SDS011;16266;50.866;4.398;2023-07-31T08:57:24;278.60;;;267.58;;
29236;SDS011;16266;50.866;4.398;2023-07-31T08:59:50;302.27;;;290.38;;
29236;SDS011;16266;50.866;4.398;2023-07-31T09:02:16;376.85;;;361.27;;
29236;SDS011;16266;50.866;4.398;2023-07-31T09:04:44;421.52;;;403.20;;
29236;SDS011;16266;50.866;4.398;2023-07-31T09:07:09;373.88;;;357.88;;
29236;SDS011;16266;50.866;4.398;2023-07-31T09:09:38;332.40;;;318.80;;
29236;SDS011;16266;50.866;4.398;2023-07-31T09:12:04;263.17;;;252.70;;
29236;SDS011;16266;50.866;4.398;2023-07-31T09:14:31;275.45;;;264.38;;
29236;SDS011;16266;50.866;4.398;2023-07-31T09:16:58;240.13;;;230.30;;
29236;SDS011;16266;50.866;4.398;2023-07-31T09:19:25;209.63;;;201.02;;
29236;SDS011;16266;50.866;4.398;2023-07-31T09:21:52;429.63;;;410.48;;
29236;SDS011;16266;50.866;4.398;2023-07-31T09:24:27;567.80;;;540.72;;
29236;SDS011;16266;50.866;4.398;2023-07-31T09:26:56;550.20;;;524.72;;
29236;SDS011;16266;50.866;4.398;2023-07-31T09:29:28;567.13;;;540.22;;
29236;SDS011;16266;50.866;4.398;2023-07-31T09:31:54;582.70;;;555.42;;
29236;SDS011;16266;50.866;4.398;2023-07-31T09:34:20;458.10;;;436.08;;
29236;SDS011;16266;50.866;4.398;2023-07-31T09:37:04;460.30;;;439.80;;
29236;SDS011;16266;50.866;4.398;2023-07-31T09:39:30;347.60;;;333.23;;
29236;SDS011;16266;50.866;4.398;2023-07-31T09:41:57;340.13;;;326.27;;
29236;SDS011;16266;50.866;4.398;2023-07-31T09:44:40;349.23;;;334.92;;
29236;SDS011;16266;50.866;4.398;2023-07-31T09:47:06;350.33;;;335.42;;
29236;SDS011;16266;50.866;4.398;2023-07-31T09:49:32;594.72;;;566.38;;
29236;SDS011;16266;50.866;4.398;2023-07-31T09:51:57;268.67;;;258.00;;
29236;SDS011;16266;50.866;4.398;2023-07-31T09:54:23;262.10;;;251.40;;
29236;SDS011;16266;50.866;4.398;2023-07-31T09:56:48;595.42;;;567.28;;
29236;SDS011;16266;50.866;4.398;2023-07-31T09:59:15;401.00;;;384.02;;
29236;SDS011;16266;50.866;4.398;2023-07-31T10:01:42;330.38;;;316.52;;
29236;SDS011;16266;50.866;4.398;2023-07-31T10:04:12;629.35;;;598.90;;
29236;SDS011;16266;50.866;4.398;2023-07-31T10:06:38;430.45;;;411.88;;
29236;SDS011;16266;50.866;4.398;2023-07-31T10:09:06;768.83;;;723.65;;
29236;SDS011;16266;50.866;4.398;2023-07-31T10:11:37;512.63;;;486.38;;
29236;SDS011;16266;50.866;4.398;2023-07-31T10:14:06;478.85;;;457.55;;
29236;SDS011;16266;50.866;4.398;2023-07-31T10:16:33;352.15;;;337.42;;
29236;SDS011;16266;50.866;4.398;2023-07-31T10:19:00;323.73;;;310.63;;
29236;SDS011;16266;50.866;4.398;2023-07-31T10:21:27;356.77;;;342.10;;
29236;SDS011;16266;50.866;4.398;2023-07-31T10:23:54;375.73;;;360.35;;
29236;SDS011;16266;50.866;4.398;2023-07-31T10:26:20;472.75;;;450.83;;
29236;SDS011;16266;50.866;4.398;2023-07-31T10:28:48;494.73;;;471.67;;
29236;SDS011;16266;50.866;4.398;2023-07-31T10:31:15;447.85;;;427.98;;
29236;SDS011;16266;50.866;4.398;2023-07-31T10:33:41;393.23;;;376.48;;
29236;SDS011;16266;50.866;4.398;2023-07-31T10:36:14;507.42;;;483.40;;
29236;SDS011;16266;50.866;4.398;2023-07-31T10:38:44;539.67;;;514.38;;
29236;SDS011;16266;50.866;4.398;2023-07-31T10:41:10;234.85;;;225.55;;
29236;SDS011;16266;50.866;4.398;2023-07-31T10:43:36;190.73;;;182.73;;
29236;SDS011;16266;50.866;4.398;2023-07-31T10:46:06;232.93;;;223.43;;
29236;SDS011;16266;50.866;4.398;2023-07-31T10:48:37;222.10;;;213.10;;
29236;SDS011;16266;50.866;4.398;2023-07-31T10:51:09;185.90;;;178.45;;
29236;SDS011;16266;50.866;4.398;2023-07-31T10:53:37;182.35;;;175.25;;
29236;SDS011;16266;50.866;4.398;2023-07-31T10:58:30;259.15;;;248.85;;
29236;SDS011;16266;50.866;4.398;2023-07-31T11:00:58;291.30;;;279.42;;
29236;SDS011;16266;50.866;4.398;2023-07-31T11:03:27;593.50;;;564.83;;
29236;SDS011;16266;50.866;4.398;2023-07-31T11:06:06;306.30;;;294.00;;
29236;SDS011;16266;50.866;4.398;2023-07-31T11:08:33;446.17;;;426.67;;
29236;SDS011;16266;50.866;4.398;2023-07-31T11:13:46;483.58;;;461.75;;
29236;SDS011;16266;50.866;4.398;2023-07-31T11:16:17;270.83;;;260.13;;
29236;SDS011;16266;50.866;4.398;2023-07-31T11:18:45;239.52;;;230.20;;
29236;SDS011;16266;50.866;4.398;2023-07-31T11:21:19;143.15;;;137.52;;
29236;SDS011;16266;50.866;4.398;2023-07-31T11:23:51;165.45;;;158.85;;
29236;SDS011;16266;50.866;4.398;2023-07-31T11:26:19;106.38;;;102.22;;
29236;SDS011;16266;50.866;4.398;2023-07-31T11:28:48;102.30;;;98.25;;
29236;SDS011;16266;50.866;4.398;2023-07-31T11:33:40;140.10;;;134.70;;
29236;SDS011;16266;50.866;4.398;2023-07-31T11:36:05;173.18;;;166.23;;
29236;SDS011;16266;50.866;4.398;2023-07-31T11:38:32;342.15;;;328.23;;
29236;SDS011;16266;50.866;4.398;2023-07-31T11:41:03;301.67;;;289.40;;
29236;SDS011;16266;50.866;4.398;2023-07-31T11:43:30;447.38;;;428.13;;
29236;SDS011;16266;50.866;4.398;2023-07-31T11:45:57;171.27;;;164.32;;
29236;SDS011;16266;50.866;4.398;2023-07-31T11:48:24;111.30;;;107.07;;
29236;SDS011;16266;50.866;4.398;2023-07-31T11:50:56;145.25;;;139.60;;
29236;SDS011;16266;50.866;4.398;2023-07-31T11:54:08;184.47;;;177.33;;
29236;SDS011;16266;50.866;4.398;2023-07-31T11:56:11;182.57;;;175.40;;
29236;SDS011;16266;50.866;4.398;2023-07-31T11:58:39;191.85;;;184.30;;
29236;SDS011;16266;50.866;4.398;2023-07-31T12:01:06;168.38;;;161.50;;
29236;SDS011;16266;50.866;4.398;2023-07-31T12:03:34;340.95;;;326.63;;
29236;SDS011;16266;50.866;4.398;2023-07-31T12:06:00;368.73;;;353.63;;
29236;SDS011;16266;50.866;4.398;2023-07-31T12:08:26;305.45;;;293.05;;
29236;SDS011;16266;50.866;4.398;2023-07-31T12:10:52;231.38;;;222.13;;
29236;SDS011;16266;50.866;4.398;2023-07-31T12:13:22;138.57;;;132.65;;
29236;SDS011;16266;50.866;4.398;2023-07-31T12:15:54;95.30;;;91.68;;
29236;SDS011;16266;50.866;4.398;2023-07-31T12:18:22;183.38;;;175.95;;
29236;SDS011;16266;50.866;4.398;2023-07-31T12:20:53;200.45;;;192.45;;
29236;SDS011;16266;50.866;4.398;2023-07-31T12:23:21;217.38;;;208.43;;
29236;SDS011;16266;50.866;4.398;2023-07-31T12:28:43;118.95;;;114.30;;
29236;SDS011;16266;50.866;4.398;2023-07-31T12:31:10;182.55;;;175.43;;
29236;SDS011;16266;50.866;4.398;2023-07-31T12:33:40;175.30;;;168.50;;
29236;SDS011;16266;50.866;4.398;2023-07-31T12:36:16;145.77;;;139.73;;
29236;SDS011;16266;50.866;4.398;2023-07-31T12:38:44;143.18;;;137.63;;
29236;SDS011;16266;50.866;4.398;2023-07-31T12:41:10;177.25;;;170.35;;
29236;SDS011;16266;50.866;4.398;2023-07-31T12:43:37;263.15;;;253.00;;
29236;SDS011;16266;50.866;4.398;2023-07-31T12:46:03;228.65;;;219.68;;
29236;SDS011;16266;50.866;4.398;2023-07-31T12:48:31;258.60;;;248.48;;
29236;SDS011;16266;50.866;4.398;2023-07-31T12:50:57;204.25;;;196.32;;
29236;SDS011;16266;50.866;4.398;2023-07-31T12:53:23;178.60;;;171.48;;
29236;SDS011;16266;50.866;4.398;2023-07-31T12:55:49;235.77;;;226.45;;
29236;SDS011;16266;50.866;4.398;2023-07-31T12:58:15;137.95;;;132.57;;
29236;SDS011;16266;50.866;4.398;2023-07-31T13:00:42;167.02;;;160.45;;
29236;SDS011;16266;50.866;4.398;2023-07-31T13:03:08;265.27;;;254.90;;
29236;SDS011;16266;50.866;4.398;2023-07-31T13:05:33;258.90;;;248.75;;
29236;SDS011;16266;50.866;4.398;2023-07-31T13:07:59;155.55;;;149.25;;
29236;SDS011;16266;50.866;4.398;2023-07-31T13:10:25;350.73;;;336.27;;
29236;SDS011;16266;50.866;4.398;2023-07-31T13:12:53;237.93;;;228.05;;
29236;SDS011;16266;50.866;4.398;2023-07-31T13:15:19;100.75;;;96.95;;
29236;SDS011;16266;50.866;4.398;2023-07-31T13:17:45;128.93;;;123.97;;
29236;SDS011;16266;50.866;4.398;2023-07-31T13:20:11;253.20;;;243.40;;
29236;SDS011;16266;50.866;4.398;2023-07-31T13:22:37;229.82;;;220.93;;
29236;SDS011;16266;50.866;4.398;2023-07-31T13:25:03;302.50;;;289.95;;
29236;SDS011;16266;50.866;4.398;2023-07-31T13:27:29;115.40;;;110.93;;
29236;SDS011;16266;50.866;4.398;2023-07-31T13:29:54;281.98;;;270.48;;
29236;SDS011;16266;50.866;4.398;2023-07-31T13:32:20;374.95;;;358.70;;
29236;SDS011;16266;50.866;4.398;2023-07-31T13:34:46;448.02;;;426.45;;
29236;SDS011;16266;50.866;4.398;2023-07-31T13:37:13;795.63;;;749.78;;
29236;SDS011;16266;50.866;4.398;2023-07-31T13:39:38;553.22;;;527.33;;
29236;SDS011;16266;50.866;4.398;2023-07-31T13:42:05;646.08;;;611.90;;
29236;SDS011;16266;50.866;4.398;2023-07-31T13:44:39;363.02;;;348.10;;
29236;SDS011;16266;50.866;4.398;2023-07-31T13:47:06;210.52;;;202.07;;
29236;SDS011;16266;50.866;4.398;2023-07-31T13:49:32;316.08;;;302.52;;
29236;SDS011;16266;50.866;4.398;2023-07-31T13:51:58;472.88;;;450.50;;
29236;SDS011;16266;50.866;4.398;2023-07-31T13:54:24;555.60;;;528.25;;
29236;SDS011;16266;50.866;4.398;2023-07-31T13:56:51;668.47;;;633.72;;
29236;SDS011;16266;50.866;4.398;2023-07-31T13:59:19;756.33;;;713.22;;
29236;SDS011;16266;50.866;4.398;2023-07-31T14:01:45;798.67;;;749.83;;
29236;SDS011;16266;50.866;4.398;2023-07-31T14:04:14;797.53;;;747.10;;
29236;SDS011;16266;50.866;4.398;2023-07-31T14:06:41;793.85;;;741.88;;